Back to Top


My Weather Underground Personal Weather Station Historical Data with Graphs...

Delerius Weather Station Historical Data
 
Daily Summary for December 02, 2022 Units:  English    Metric   Both
Daily Weekly Monthly Yearly
  Current: High: Low: Average:
Temperature: 42.8 °F 46 °F 37.8 °F 41 °F
Dew Point: 40.6 °F 44.8 °F 37 °F 39.7 °F
Humidity: 92% 97% 91% 96%
Wind Speed: 5mph 6.8mph 0mph 3.5mph
Wind Gust: 7mph 12mph - -
WindNE - - SSW
Pressure: 30.4 in 30.4 in 30.4 in -
Precipitation: 0 in      
 
 
Tabular Data for December 02, 2022
Time Temperature Dew Point Pressure Wind Wind Speed Wind Gust Humidity Rainfall Rate (Hourly) solar
00:04 38.5 °F 37.4 °F 30.4 in SSW 3.4 mph 5 mph 96% 0 in 0 W/m2
00:09 38.5 °F 37.6 °F 30.4 in SSW 1.3 mph 5 mph 96.8% 0 in 0 W/m2
00:14 38.3 °F 37.4 °F 30.4 in SSW 0.1 mph 1 mph 96.9% 0 in 0 W/m2
00:19 38.3 °F 37.4 °F 30.4 in Calm     96.2% 0 in 0 W/m2
00:24 38.3 °F 37.4 °F 30.4 in SSW 1.1 mph 4 mph 96.8% 0 in 0 W/m2
00:29 38.3 °F 37.6 °F 30.4 in South 1.9 mph 4 mph 97% 0 in 0 W/m2
00:34 38.3 °F 37.6 °F 30.4 in South 1.6 mph 4 mph 97% 0 in 0 W/m2
00:39 38.3 °F 37.6 °F 30.4 in Calm   2 mph 97% 0 in 0 W/m2
00:44 38.3 °F 37.6 °F 30.4 in South 0.9 mph 5 mph 97% 0 in 0 W/m2
00:49 38.5 °F 37.8 °F 30.4 in South 3 mph 5 mph 97% 0 in 0 W/m2
00:54 38.5 °F 37.8 °F 30.4 in South 2 mph 4 mph 97% 0 in 0 W/m2
00:59 38.5 °F 37.6 °F 30.4 in South 2.2 mph 5 mph 97% 0 in 0 W/m2
01:04 38.5 °F 37.6 °F 30.4 in South 3.9 mph 6 mph 97% 0 in 0 W/m2
01:09 38.3 °F 37.4 °F 30.4 in South 3.4 mph 5 mph 97% 0 in 0 W/m2
01:14 38.1 °F 37.2 °F 30.4 in South 1.4 mph 4 mph 97% 0 in 0 W/m2
01:19 38.1 °F 37.2 °F 30.4 in South 3.5 mph 5 mph 97% 0 in 0 W/m2
01:24 38.1 °F 37.2 °F 30.4 in South 2.1 mph 5 mph 97% 0 in 0 W/m2
01:29 38.1 °F 37.2 °F 30.4 in South 1.4 mph 5 mph 97% 0 in 0 W/m2
01:34 37.9 °F 37.2 °F 30.4 in South 3.2 mph 5 mph 97% 0 in 0 W/m2
01:39 37.9 °F 37.2 °F 30.4 in South 1.9 mph 4 mph 97% 0 in 0 W/m2
01:44 37.9 °F 37.2 °F 30.4 in South 0.4 mph 2 mph 97% 0 in 0 W/m2
01:49 37.9 °F 37.2 °F 30.4 in South 0.2 mph 1 mph 97% 0 in 0 W/m2
01:54 37.9 °F 37.2 °F 30.4 in Calm   1 mph 97% 0 in 0 W/m2
01:59 37.9 °F 37.2 °F 30.4 in South 0.5 mph 1 mph 97% 0 in 0 W/m2
02:04 38.1 °F 37.2 °F 30.4 in South 1 mph 2 mph 97% 0 in 0 W/m2
02:09 38.1 °F 37.2 °F 30.4 in South 1 mph 2 mph 97% 0 in 0 W/m2
02:14 38.1 °F 37.2 °F 30.4 in South 1.1 mph 2 mph 97% 0 in 0 W/m2
02:19 38.1 °F 37.2 °F 30.4 in SSW 2.2 mph 5 mph 97% 0 in 0 W/m2
02:24 38.1 °F 37.2 °F 30.4 in WSW 1.6 mph 5 mph 97% 0 in 0 W/m2
02:29 37.9 °F 37.2 °F 30.4 in WSW 1.1 mph 2 mph 97% 0 in 0 W/m2
02:34 37.9 °F 37.2 °F 30.4 in WSW 0.2 mph 2 mph 97% 0 in 0 W/m2
02:39 37.9 °F 37.2 °F 30.4 in WNW 2.5 mph 5 mph 97% 0 in 0 W/m2
02:44 37.9 °F 37.2 °F 30.4 in NW 1.6 mph 5 mph 97% 0 in 0 W/m2
02:49 37.9 °F 37.2 °F 30.4 in NW 0.9 mph 2 mph 97% 0 in 0 W/m2
02:54 37.9 °F 37.2 °F 30.4 in NW 1 mph 2 mph 97% 0 in 0 W/m2
02:59 37.8 °F 37 °F 30.4 in Calm   2 mph 97% 0 in 0 W/m2
03:04 37.8 °F 37 °F 30.4 in Calm     97% 0 in 0 W/m2
03:09 37.8 °F 37 °F 30.4 in NW 0.7 mph 2 mph 97% 0 in 0 W/m2
03:14 37.8 °F 37 °F 30.4 in NW 0.6 mph 2 mph 97% 0 in 0 W/m2
03:19 37.8 °F 37 °F 30.4 in Calm   1 mph 97% 0 in 0 W/m2
03:24 37.9 °F 37.2 °F 30.4 in NW 0.7 mph 2 mph 97% 0 in 0 W/m2
03:29 37.9 °F 37.2 °F 30.4 in North 2.7 mph 5 mph 97% 0 in 0 W/m2
03:34 37.9 °F 37.2 °F 30.4 in North 2.6 mph 5 mph 97% 0 in 0 W/m2
03:39 37.9 °F 37.2 °F 30.4 in North 2.3 mph 6 mph 97% 0 in 0 W/m2
03:44 37.9 °F 37.2 °F 30.4 in NNW 4.7 mph 6 mph 97% 0 in 0 W/m2
03:49 37.9 °F 37.2 °F 30.4 in NW 4 mph 6 mph 97% 0 in 0 W/m2
03:54 37.9 °F 37.2 °F 30.4 in NNW 4 mph 6 mph 97% 0 in 0 W/m2
03:59 37.9 °F 37.2 °F 30.4 in NNW 1.1 mph 5 mph 97% 0 in 0 W/m2
04:04 37.9 °F 37.2 °F 30.4 in NNW 0.4 mph 2 mph 97% 0 in 0 W/m2
04:09 37.9 °F 37.2 °F 30.4 in NNW 1 mph 2 mph 97% 0 in 0 W/m2
04:14 37.9 °F 37.2 °F 30.4 in NNW 1.2 mph 4 mph 97% 0 in 0 W/m2
04:19 37.9 °F 37.2 °F 30.4 in NNW 1.6 mph 4 mph 97% 0 in 0 W/m2
04:24 38.1 °F 37.2 °F 30.4 in NNW 2 mph 4 mph 97% 0 in 0 W/m2
04:29 38.1 °F 37.2 °F 30.4 in NNW 1.8 mph 4 mph 97% 0 in 0 W/m2
04:34 38.1 °F 37.2 °F 30.4 in NNW 1.4 mph 4 mph 97% 0 in 0 W/m2
04:39 38.1 °F 37.4 °F 30.4 in NNW 1.4 mph 4 mph 97% 0 in 0 W/m2
04:44 38.3 °F 37.4 °F 30.4 in NNE 2 mph 4 mph 97% 0 in 0 W/m2
04:49 38.3 °F 37.6 °F 30.4 in NNE 1.3 mph 4 mph 97% 0 in 0 W/m2
04:54 38.3 °F 37.6 °F 30.4 in NNE 1.8 mph 4 mph 97% 0 in 0 W/m2
04:59 38.3 °F 37.6 °F 30.4 in North 2.2 mph 4 mph 97% 0 in 0 W/m2
05:04 38.5 °F 37.6 °F 30.4 in North 0.7 mph 4 mph 97% 0 in 0 W/m2
05:09 38.5 °F 37.8 °F 30.4 in North 1.5 mph 3 mph 97% 0 in 0 W/m2
05:14 38.5 °F 37.8 °F 30.4 in North 0.3 mph 2 mph 97% 0 in 0 W/m2
05:19 38.5 °F 37.8 °F 30.4 in North 1 mph 2 mph 97% 0 in 0 W/m2
05:24 38.5 °F 37.8 °F 30.4 in North 0.6 mph 2 mph 97% 0 in 0 W/m2
05:29 38.5 °F 37.8 °F 30.4 in North 0.9 mph 2 mph 97% 0 in 0 W/m2
05:34 38.3 °F 37.6 °F 30.4 in North 1.9 mph 3 mph 97% 0 in 0 W/m2
05:39 38.3 °F 37.6 °F 30.4 in North 0.7 mph 3 mph 97% 0 in 0 W/m2
05:44 38.3 °F 37.6 °F 30.4 in North 0.6 mph 2 mph 97% 0 in 0 W/m2
05:49 38.3 °F 37.6 °F 30.4 in North 0.7 mph 3 mph 97% 0 in 0 W/m2
05:54 38.3 °F 37.6 °F 30.4 in North 1.9 mph 4 mph 97% 0 in 0 W/m2
05:59 38.5 °F 37.8 °F 30.4 in North 2 mph 4 mph 97% 0 in 0 W/m2
06:04 38.5 °F 37.8 °F 30.4 in North 1.2 mph 3 mph 97% 0 in 0 W/m2
06:09 38.5 °F 37.8 °F 30.4 in North 2.3 mph 5 mph 97% 0 in 0 W/m2
06:14 38.5 °F 37.8 °F 30.4 in North 3 mph 5 mph 97% 0 in 0 W/m2
06:19 38.5 °F 37.8 °F 30.4 in North 2.9 mph 5 mph 97% 0 in 0 W/m2
06:24 38.5 °F 37.8 °F 30.4 in North 2.4 mph 4 mph 97% 0 in 0 W/m2
06:29 38.5 °F 37.8 °F 30.4 in North 1.6 mph 4 mph 97% 0 in 0 W/m2
06:34 38.5 °F 37.8 °F 30.4 in North 2 mph 4 mph 97% 0 in 0 W/m2
06:39 38.5 °F 37.8 °F 30.4 in North 2 mph 4 mph 97% 0 in 0 W/m2
06:44 38.5 °F 37.8 °F 30.4 in North 2 mph 4 mph 97% 0 in 0 W/m2
06:49 38.5 °F 37.8 °F 30.4 in North 1.8 mph 4 mph 97% 0 in 0 W/m2
06:54 38.5 °F 37.8 °F 30.4 in North 2 mph 4 mph 97% 0 in 0 W/m2
06:59 38.5 °F 37.8 °F 30.4 in North 2.9 mph 5 mph 97% 0 in 0 W/m2
07:04 38.5 °F 37.8 °F 30.4 in North 2.2 mph 5 mph 97% 0 in 0 W/m2
07:09 38.5 °F 37.8 °F 30.4 in North 1.7 mph 4 mph 97% 0 in 0 W/m2
07:14 38.5 °F 37.8 °F 30.4 in North 0.6 mph 3 mph 97% 0 in 0 W/m2
07:19 38.5 °F 37.8 °F 30.4 in Calm   1 mph 97% 0 in 0 W/m2
07:24 38.5 °F 37.8 °F 30.4 in Calm     97% 0 in 0 W/m2
07:29 38.5 °F 37.8 °F 30.4 in Calm     97% 0 in 0 W/m2
07:34 38.5 °F 37.8 °F 30.4 in North 0.6 mph 4 mph 97% 0 in 0 W/m2
07:39 38.5 °F 37.8 °F 30.4 in North 2.9 mph 5 mph 97% 0 in 0 W/m2
07:44 38.5 °F 37.8 °F 30.4 in NNW 3.2 mph 5 mph 97% 0 in 0 W/m2
07:49 38.5 °F 37.8 °F 30.4 in NNW 2.5 mph 4 mph 97% 0 in 0 W/m2
07:54 38.5 °F 37.6 °F 30.4 in NNW 2.9 mph 5 mph 97% 0 in 0 W/m2
07:59 38.5 °F 37.8 °F 30.4 in NW 4 mph 5 mph 97% 0 in 5 W/m2
08:04 38.5 °F 37.8 °F 30.4 in NW 3.1 mph 5 mph 97% 0 in 0 W/m2
08:09 38.5 °F 37.8 °F 30.4 in NW 3.7 mph 5 mph 97% 0 in 5 W/m2
08:14 38.5 °F 37.8 °F 30.4 in NW 4.8 mph 7 mph 97% 0 in 5 W/m2
08:19 38.5 °F 37.8 °F 30.4 in NW 5 mph 7 mph 97% 0 in 7 W/m2
08:24 38.7 °F 37.9 °F 30.4 in NW 4.9 mph 6 mph 97% 0 in 9 W/m2
08:29 38.7 °F 37.9 °F 30.4 in NW 4.5 mph 6 mph 97% 0 in 12 W/m2
08:34 38.7 °F 37.9 °F 30.4 in NW 3.9 mph 6 mph 97% 0 in 16 W/m2
08:39 38.7 °F 37.9 °F 30.4 in NW 4.5 mph 7 mph 97% 0 in 18 W/m2
08:44 38.8 °F 37.9 °F 30.4 in NW 5.1 mph 7 mph 97% 0 in 18 W/m2
08:49 38.8 °F 38.1 °F 30.4 in NW 5.5 mph 8 mph 97% 0 in 23 W/m2
08:54 38.8 °F 38.1 °F 30.4 in NW 6.4 mph 8 mph 97% 0 in 28 W/m2
08:59 38.8 °F 38.1 °F 30.4 in NW 6.6 mph 8 mph 97% 0 in 30 W/m2
09:04 39 °F 38.1 °F 30.4 in NW 5 mph 7 mph 97% 0 in 35 W/m2
09:09 39 °F 38.1 °F 30.4 in NW 5 mph 7 mph 97% 0 in 37 W/m2
09:14 39 °F 38.3 °F 30.4 in NW 5 mph 7 mph 97% 0 in 35 W/m2
09:19 39.2 °F 38.3 °F 30.4 in NW 5.3 mph 7 mph 97% 0 in 33 W/m2
09:24 39.4 °F 38.5 °F 30.4 in NW 5.2 mph 7 mph 97% 0 in 39 W/m2
09:29 39.4 °F 38.7 °F 30.4 in NW 5 mph 6 mph 97% 0 in 40 W/m2
09:34 39.4 °F 38.7 °F 30.4 in NW 5.1 mph 7 mph 97% 0 in 40 W/m2
09:39 39.4 °F 38.7 °F 30.4 in NW 5.1 mph 7 mph 97% 0 in 46 W/m2
09:44 39.6 °F 38.8 °F 30.4 in NW 5 mph 6 mph 97% 0 in 53 W/m2
09:49 39.6 °F 38.8 °F 30.4 in NW 5.2 mph 6 mph 97% 0 in 56 W/m2
09:54 39.7 °F 39 °F 30.4 in NW 5 mph 6 mph 97% 0 in 53 W/m2
09:59 39.7 °F 39 °F 30.4 in NW 4.2 mph 6 mph 97% 0 in 40 W/m2
10:04 39.9 °F 39 °F 30.4 in NW 4 mph 5 mph 97% 0 in 37 W/m2
10:09 40.1 °F 39.2 °F 30.4 in NW 4.2 mph 6 mph 97% 0 in 44 W/m2
10:14 40.1 °F 39.4 °F 30.4 in NW 5 mph 6 mph 97% 0 in 51 W/m2
10:19 40.3 °F 39.6 °F 30.4 in NW 5 mph 6 mph 97% 0 in 69 W/m2
10:24 40.5 °F 39.6 °F 30.4 in NW 4.9 mph 6 mph 97% 0 in 70 W/m2
10:29 40.5 °F 39.7 °F 30.4 in NW 4.5 mph 6 mph 97% 0 in 98 W/m2
10:34 40.6 °F 39.9 °F 30.4 in NW 4.4 mph 6 mph 97% 0 in 139 W/m2
10:39 40.8 °F 39.9 °F 30.4 in NW 4.5 mph 6 mph 97% 0 in 109 W/m2
10:44 40.8 °F 40.1 °F 30.4 in WNW 4.9 mph 6 mph 97% 0 in 123 W/m2
10:49 41 °F 40.3 °F 30.4 in NW 4.6 mph 6 mph 97% 0 in 163 W/m2
10:54 41.2 °F 40.5 °F 30.4 in NW 4.8 mph 6 mph 97% 0 in 163 W/m2
10:59 41.5 °F 40.6 °F 30.4 in NW 5 mph 6 mph 97% 0 in 237 W/m2
11:04 41.5 °F 40.8 °F 30.4 in NW 5 mph 6 mph 97% 0 in 272 W/m2
11:09 42.1 °F 41.2 °F 30.4 in NW 5 mph 6 mph 97% 0 in 271 W/m2
11:14 42.3 °F 41.5 °F 30.4 in NW 4.5 mph 6 mph 97% 0 in 257 W/m2
11:19 42.4 °F 41.5 °F 30.4 in NW 5 mph 7 mph 97% 0 in 257 W/m2
11:24 42.4 °F 41.7 °F 30.4 in NW 5.3 mph 6 mph 97% 0 in 221 W/m2
11:29 42.6 °F 41.7 °F 30.4 in NW 5.4 mph 6 mph 97% 0 in 221 W/m2
11:34 42.8 °F 41.9 °F 30.4 in NW 5.3 mph 7 mph 97% 0 in 236 W/m2
11:39 43 °F 42.3 °F 30.4 in NW 5 mph 6 mph 97% 0 in 236 W/m2
11:44 43.2 °F 42.4 °F 30.4 in NW 5.3 mph 7 mph 97% 0 in 227 W/m2
11:49 43.2 °F 42.4 °F 30.4 in NW 5.4 mph 7 mph 97% 0 in 227 W/m2
11:54 43.2 °F 42.4 °F 30.4 in NW 5.5 mph 7 mph 97% 0 in 229 W/m2
11:59 43.3 °F 42.4 °F 30.4 in NW 5.3 mph 7 mph 97% 0 in 234 W/m2
12:04 43.3 °F 42.6 °F 30.4 in NW 5.3 mph 8 mph 97% 0 in 250 W/m2
12:09 43.5 °F 42.6 °F 30.4 in NW 5.8 mph 8 mph 97% 0 in 267 W/m2
12:14 43.5 °F 42.6 °F 30.4 in WNW 5 mph 7 mph 97% 0 in 156 W/m2
12:19 43.3 °F 42.6 °F 30.4 in WNW 5.2 mph 7 mph 97% 0 in 84 W/m2
12:24 43.3 °F 42.4 °F 30.4 in WNW 4.4 mph 6 mph 97% 0 in 144 W/m2
12:29 43.3 °F 42.4 °F 30.4 in WNW 4.8 mph 6 mph 97% 0 in 167 W/m2
12:34 43.3 °F 42.6 °F 30.4 in WNW 4 mph 6 mph 97% 0 in 206 W/m2
12:39 43.7 °F 42.8 °F 30.4 in WNW 3.9 mph 6 mph 97% 0 in 274 W/m2
12:44 43.7 °F 43 °F 30.4 in WNW 4.5 mph 7 mph 97% 0 in 132 W/m2
12:49 43.7 °F 43 °F 30.4 in WNW 4.8 mph 6 mph 97% 0 in 214 W/m2
12:54 43.9 °F 43 °F 30.4 in WNW 5 mph 6 mph 97% 0 in 88 W/m2
12:59 43.9 °F 43 °F 30.4 in WNW 4.4 mph 6 mph 97% 0 in 74 W/m2
13:04 43.9 °F 43.2 °F 30.4 in WNW 3.1 mph 5 mph 97% 0 in 83 W/m2
13:09 44.1 °F 43.2 °F 30.4 in NW 4 mph 6 mph 97% 0 in 84 W/m2
13:14 44.2 °F 43.3 °F 30.4 in NW 4 mph 6 mph 97% 0 in 81 W/m2
13:19 44.4 °F 43.5 °F 30.4 in NW 4 mph 6 mph 97% 0 in 81 W/m2
13:24 44.6 °F 43.9 °F 30.4 in NW 3.5 mph 5 mph 97% 0 in 81 W/m2
13:29 44.8 °F 44.1 °F 30.4 in NNW 4 mph 6 mph 97% 0 in 77 W/m2
13:34 45 °F 44.2 °F 30.4 in NNW 3.4 mph 6 mph 97% 0 in 72 W/m2
13:39 45.1 °F 44.2 °F 30.4 in NNE 2.7 mph 7 mph 97% 0 in 63 W/m2
13:44 45 °F 44.2 °F 30.4 in NE 4.5 mph 8 mph 97% 0 in 54 W/m2
13:49 45 °F 44.2 °F 30.4 in NE 5.1 mph 8 mph 97% 0 in 60 W/m2
13:54 45.1 °F 44.2 °F 30.4 in NE 5.3 mph 9 mph 97% 0 in 62 W/m2
13:59 45.3 °F 44.4 °F 30.4 in ENE 5.2 mph 9 mph 97% 0 in 72 W/m2
14:04 45.5 °F 44.8 °F 30.4 in ENE 5.7 mph 10 mph 97% 0 in 76 W/m2
14:09 45.7 °F 44.8 °F 30.4 in ENE 6.6 mph 11 mph 96.1% 0 in 70 W/m2
14:14 45.9 °F 44.8 °F 30.4 in ENE 6.5 mph 11 mph 95.9% 0 in 56 W/m2
14:19 46 °F 44.8 °F 30.4 in ENE 5.8 mph 11 mph 95% 0 in 46 W/m2
14:24 46 °F 44.4 °F 30.4 in ENE 5.5 mph 9 mph 94.2% 0 in 47 W/m2
14:29 46 °F 44.4 °F 30.4 in ENE 4.5 mph 8 mph 94% 0 in 46 W/m2
14:34 46 °F 44.2 °F 30.4 in NE 4.3 mph 7 mph 93.3% 0 in 44 W/m2
14:39 46 °F 44.1 °F 30.4 in NE 4.6 mph 8 mph 93% 0 in 39 W/m2
14:44 45.9 °F 43.9 °F 30.4 in ENE 5.3 mph 8 mph 92.3% 0 in 42 W/m2
14:49 45.9 °F 43.7 °F 30.4 in ENE 3.9 mph 8 mph 92% 0 in 40 W/m2
14:54 45.9 °F 43.5 °F 30.4 in NE 4.9 mph 8 mph 92% 0 in 35 W/m2
14:59 45.7 °F 43.5 °F 30.4 in NE 4.5 mph 7 mph 92% 0 in 35 W/m2
15:04 45.7 °F 43.5 °F 30.4 in ENE 4 mph 6 mph 92% 0 in 30 W/m2
15:09 45.7 °F 43.3 °F 30.4 in NE 4.2 mph 7 mph 92% 0 in 26 W/m2
15:14 45.5 °F 43.3 °F 30.4 in NE 3.9 mph 7 mph 91.8% 0 in 19 W/m2
15:19 45.5 °F 43 °F 30.4 in NE 4.5 mph 7 mph 91.2% 0 in 14 W/m2
15:24 45.5 °F 43 °F 30.4 in NE 4.9 mph 7 mph 91% 0 in 14 W/m2
15:29 45.5 °F 43 °F 30.4 in NE 3.9 mph 7 mph 91% 0 in 12 W/m2
15:34 45.5 °F 43 °F 30.4 in NE 3.6 mph 6 mph 91% 0 in 9 W/m2
15:39 45.5 °F 43 °F 30.4 in NE 4.5 mph 8 mph 91% 0 in 7 W/m2
15:44 45.5 °F 43 °F 30.4 in NE 4.1 mph 8 mph 91% 0 in 7 W/m2
15:49 45.3 °F 42.8 °F 30.4 in NE 3.5 mph 6 mph 91% 0 in 5 W/m2
15:54 45.3 °F 42.8 °F 30.4 in NE 3.9 mph 6 mph 91% 0 in 0 W/m2
15:59 45.3 °F 42.8 °F 30.4 in NE 4 mph 6 mph 91% 0 in 0 W/m2
16:04 45.1 °F 42.6 °F 30.4 in NE 4.3 mph 7 mph 91% 0 in 0 W/m2
16:09 45 °F 42.4 °F 30.4 in NE 3.9 mph 7 mph 91% 0 in 0 W/m2
16:14 44.8 °F 42.3 °F 30.4 in NE 4.8 mph 7 mph 91% 0 in 0 W/m2
16:19 44.6 °F 42.3 °F 30.4 in NE 3.4 mph 7 mph 91% 0 in 0 W/m2
16:24 44.4 °F 41.9 °F 30.4 in NE 3 mph 6 mph 91% 0 in 0 W/m2
16:29 44.2 °F 41.7 °F 30.4 in NE 3.2 mph 6 mph 91% 0 in 0 W/m2
16:34 44.1 °F 41.5 °F 30.4 in NE 2.8 mph 5 mph 91% 0 in 0 W/m2
16:39 43.9 °F 41.4 °F 30.4 in NE 3.5 mph 7 mph 91% 0 in 0 W/m2
16:44 43.5 °F 41.2 °F 30.4 in NE 3.9 mph 6 mph 91% 0 in 0 W/m2
16:49 43.3 °F 41 °F 30.4 in NE 4 mph 7 mph 91% 0 in 0 W/m2
16:54 43.3 °F 40.8 °F 30.4 in NE 4.1 mph 7 mph 91% 0 in 0 W/m2
16:59 43.2 °F 40.6 °F 30.4 in NE 4.3 mph 7 mph 91% 0 in 0 W/m2
17:04 43.2 °F 40.6 °F 30.4 in NE 5 mph 7 mph 91% 0 in 0 W/m2
17:09 43 °F 40.5 °F 30.4 in NE 5 mph 7 mph 91% 0 in 0 W/m2
17:14 43 °F 40.5 °F 30.4 in NE 4.4 mph 7 mph 91% 0 in 0 W/m2
17:19 43 °F 40.5 °F 30.4 in NE 4.5 mph 7 mph 91% 0 in 0 W/m2
17:24 43 °F 40.5 °F 30.4 in NE 4 mph 7 mph 91% 0 in 0 W/m2
17:29 43 °F 40.5 °F 30.4 in NE 4.2 mph 7 mph 91% 0 in 0 W/m2
17:34 42.8 °F 40.5 °F 30.4 in NE 4 mph 7 mph 91% 0 in 0 W/m2
17:39 42.6 °F 40.3 °F 30.4 in NE 4.2 mph 7 mph 91% 0 in 0 W/m2
17:44 42.6 °F 40.3 °F 30.4 in NE 4.2 mph 6 mph 91% 0 in 0 W/m2
17:49 42.6 °F 40.3 °F 30.4 in NE 4.8 mph 7 mph 91% 0 in 0 W/m2
17:54 42.6 °F 40.3 °F 30.4 in NE 4.9 mph 7 mph 91% 0 in 0 W/m2
17:59 42.6 °F 40.3 °F 30.4 in NE 5.1 mph 8 mph 91% 0 in 0 W/m2
18:04 42.8 °F 40.5 °F 30.4 in NE 5.4 mph 8 mph 91% 0 in 0 W/m2
18:09 42.8 °F 40.5 °F 30.4 in NE 5.8 mph 9 mph 91% 0 in 0 W/m2
18:14 43 °F 40.5 °F 30.4 in NE 5.9 mph 9 mph 91% 0 in 0 W/m2
18:19 42.8 °F 40.5 °F 30.4 in NE 6 mph 9 mph 91% 0 in 0 W/m2
18:24 42.6 °F 40.3 °F 30.4 in NE 5.9 mph 9 mph 91% 0 in 0 W/m2
18:29 42.6 °F 40.3 °F 30.4 in NE 6 mph 9 mph 91% 0 in 0 W/m2
18:34 42.6 °F 40.3 °F 30.4 in NE 6.8 mph 10 mph 91% 0 in 0 W/m2
18:39 43 °F 40.5 °F 30.4 in NE 6.2 mph 10 mph 91% 0 in 0 W/m2
18:44 43 °F 40.5 °F 30.4 in NE 5.8 mph 10 mph 91% 0 in 0 W/m2
18:49 43 °F 40.5 °F 30.4 in NE 5.5 mph 9 mph 91% 0 in 0 W/m2
18:54 43 °F 40.5 °F 30.4 in NE 6.3 mph 11 mph 91% 0 in 0 W/m2
18:59 42.8 °F 40.5 °F 30.4 in NE 5.8 mph 10 mph 91% 0 in 0 W/m2
19:04 42.8 °F 40.5 °F 30.4 in NNE 6.1 mph 12 mph 91% 0 in 0 W/m2
19:09 43 °F 40.6 °F 30.4 in NNE 6.5 mph 12 mph 91% 0 in 0 W/m2
19:14 43.2 °F 40.8 °F 30.4 in NNE 5.8 mph 12 mph 91.2% 0 in 0 W/m2
19:19 43.2 °F 40.8 °F 30.4 in NNE 5.7 mph 9 mph 91.7% 0 in 0 W/m2
19:24 43 °F 40.8 °F 30.4 in NNE 5 mph 8 mph 92% 0 in 0 W/m2
19:26 42.8 °F 40.6 °F 30.4 in NE 5 mph 7 mph 92% 0 in 0 W/m2
North Lincolnshire Weather
Compliments of Weather Underground - 2 mb

Data updates at regular intervals.